sensor_id;sensor_type;location;lat;lon;timestamp;temperature;humidity
47022;DHT22;32779;52.264;6.154;2022-12-29T00:02:15;10.20;99.90
47022;DHT22;32779;52.264;6.154;2022-12-29T00:04:40;10.20;99.90
47022;DHT22;32779;52.264;6.154;2022-12-29T00:07:06;10.20;99.90
47022;DHT22;32779;52.264;6.154;2022-12-29T00:09:33;10.20;99.90
47022;DHT22;32779;52.264;6.154;2022-12-29T00:11:58;10.30;99.90
47022;DHT22;32779;52.264;6.154;2022-12-29T00:14:24;10.30;99.90
47022;DHT22;32779;52.264;6.154;2022-12-29T00:17:09;10.30;99.90
47022;DHT22;32779;52.264;6.154;2022-12-29T00:19:34;10.30;99.90
47022;DHT22;32779;52.264;6.154;2022-12-29T00:22:18;10.30;99.90
47022;DHT22;32779;52.264;6.154;2022-12-29T00:25:03;10.30;99.90
47022;DHT22;32779;52.264;6.154;2022-12-29T00:27:48;10.40;99.90
47022;DHT22;32779;52.264;6.154;2022-12-29T00:30:32;10.40;99.90
47022;DHT22;32779;52.264;6.154;2022-12-29T00:33:19;10.50;99.90
47022;DHT22;32779;52.264;6.154;2022-12-29T00:36:07;10.40;99.90
47022;DHT22;32779;52.264;6.154;2022-12-29T00:38:38;10.40;99.90
47022;DHT22;32779;52.264;6.154;2022-12-29T00:41:24;10.50;99.90
47022;DHT22;32779;52.264;6.154;2022-12-29T00:44:10;10.50;99.90
47022;DHT22;32779;52.264;6.154;2022-12-29T00:46:40;10.50;99.90
47022;DHT22;32779;52.264;6.154;2022-12-29T00:49:08;10.50;99.90
47022;DHT22;32779;52.264;6.154;2022-12-29T00:51:55;10.50;99.90
47022;DHT22;32779;52.264;6.154;2022-12-29T00:54:21;10.50;99.90
47022;DHT22;32779;52.264;6.154;2022-12-29T00:56:48;10.60;99.90
47022;DHT22;32779;52.264;6.154;2022-12-29T00:59:14;10.60;99.90
47022;DHT22;32779;52.264;6.154;2022-12-29T01:01:39;10.60;99.90
47022;DHT22;32779;52.264;6.154;2022-12-29T01:04:06;10.50;99.90
47022;DHT22;32779;52.264;6.154;2022-12-29T01:06:32;10.50;99.90
47022;DHT22;32779;52.264;6.154;2022-12-29T01:08:58;10.50;99.90
47022;DHT22;32779;52.264;6.154;2022-12-29T01:11:42;10.50;99.90
47022;DHT22;32779;52.264;6.154;2022-12-29T01:14:08;10.50;99.90
47022;DHT22;32779;52.264;6.154;2022-12-29T01:16:34;10.50;99.90
47022;DHT22;32779;52.264;6.154;2022-12-29T01:18:59;10.50;99.90
47022;DHT22;32779;52.264;6.154;2022-12-29T01:21:25;10.50;99.90
47022;DHT22;32779;52.264;6.154;2022-12-29T01:23:51;10.50;99.90
47022;DHT22;32779;52.264;6.154;2022-12-29T01:26:17;10.40;99.90
47022;DHT22;32779;52.264;6.154;2022-12-29T01:28:43;10.40;99.90
47022;DHT22;32779;52.264;6.154;2022-12-29T01:31:11;10.40;99.90
47022;DHT22;32779;52.264;6.154;2022-12-29T01:33:36;10.40;99.90
47022;DHT22;32779;52.264;6.154;2022-12-29T01:36:03;10.40;99.90
47022;DHT22;32779;52.264;6.154;2022-12-29T01:38:30;10.40;99.90
47022;DHT22;32779;52.264;6.154;2022-12-29T01:40:55;10.40;99.90
47022;DHT22;32779;52.264;6.154;2022-12-29T01:43:21;10.40;99.90
47022;DHT22;32779;52.264;6.154;2022-12-29T01:45:56;10.40;99.90
47022;DHT22;32779;52.264;6.154;2022-12-29T01:48:21;10.50;99.90
47022;DHT22;32779;52.264;6.154;2022-12-29T01:50:51;10.50;99.90
47022;DHT22;32779;52.264;6.154;2022-12-29T01:53:25;10.50;99.90
47022;DHT22;32779;52.264;6.154;2022-12-29T01:55:57;10.50;99.90
47022;DHT22;32779;52.264;6.154;2022-12-29T01:58:27;10.50;99.90
47022;DHT22;32779;52.264;6.154;2022-12-29T02:00:55;10.50;99.90
47022;DHT22;32779;52.264;6.154;2022-12-29T02:03:22;10.40;99.90
47022;DHT22;32779;52.264;6.154;2022-12-29T02:05:56;10.40;99.90
47022;DHT22;32779;52.264;6.154;2022-12-29T02:08:26;10.40;99.90
47022;DHT22;32779;52.264;6.154;2022-12-29T02:10:53;10.30;99.90
47022;DHT22;32779;52.264;6.154;2022-12-29T02:13:20;10.30;99.90
47022;DHT22;32779;52.264;6.154;2022-12-29T02:26:46;10.40;99.90
47022;DHT22;32779;52.264;6.154;2022-12-29T02:29:40;10.40;99.90
47022;DHT22;32779;52.264;6.154;2022-12-29T02:35:01;10.50;99.90
47022;DHT22;32779;52.264;6.154;2022-12-29T02:37:51;10.40;99.90
47022;DHT22;32779;52.264;6.154;2022-12-29T02:40:27;10.40;99.90
47022;DHT22;32779;52.264;6.154;2022-12-29T02:43:01;10.40;99.90
47022;DHT22;32779;52.264;6.154;2022-12-29T02:50:40;10.40;99.90
47022;DHT22;32779;52.264;6.154;2022-12-29T02:53:11;10.40;99.90
47022;DHT22;32779;52.264;6.154;2022-12-29T02:55:38;10.40;99.90
47022;DHT22;32779;52.264;6.154;2022-12-29T02:58:27;10.40;99.90
47022;DHT22;32779;52.264;6.154;2022-12-29T03:11:27;10.50;99.90
47022;DHT22;32779;52.264;6.154;2022-12-29T03:14:16;10.50;99.90
47022;DHT22;32779;52.264;6.154;2022-12-29T03:17:10;10.50;99.90
47022;DHT22;32779;52.264;6.154;2022-12-29T03:19:46;10.50;99.90
47022;DHT22;32779;52.264;6.154;2022-12-29T03:22:20;10.50;99.90
47022;DHT22;32779;52.264;6.154;2022-12-29T03:24:59;10.50;99.90
47022;DHT22;32779;52.264;6.154;2022-12-29T03:27:30;10.50;99.90
47022;DHT22;32779;52.264;6.154;2022-12-29T03:30:00;10.40;99.90
47022;DHT22;32779;52.264;6.154;2022-12-29T03:32:32;10.40;99.90
47022;DHT22;32779;52.264;6.154;2022-12-29T03:34:59;10.40;99.90
47022;DHT22;32779;52.264;6.154;2022-12-29T03:37:30;10.40;99.90
47022;DHT22;32779;52.264;6.154;2022-12-29T03:39:56;10.30;99.90
47022;DHT22;32779;52.264;6.154;2022-12-29T03:42:26;10.30;99.90
47022;DHT22;32779;52.264;6.154;2022-12-29T03:44:55;10.20;99.90
47022;DHT22;32779;52.264;6.154;2022-12-29T03:47:22;10.20;99.90
47022;DHT22;32779;52.264;6.154;2022-12-29T03:49:48;10.20;99.90
47022;DHT22;32779;52.264;6.154;2022-12-29T03:52:14;10.10;99.90
47022;DHT22;32779;52.264;6.154;2022-12-29T03:54:40;10.10;99.90
47022;DHT22;32779;52.264;6.154;2022-12-29T03:57:06;10.10;99.90
47022;DHT22;32779;52.264;6.154;2022-12-29T03:59:31;10.10;99.90
47022;DHT22;32779;52.264;6.154;2022-12-29T04:01:57;10.10;99.90
47022;DHT22;32779;52.264;6.154;2022-12-29T04:04:22;10.10;99.90
47022;DHT22;32779;52.264;6.154;2022-12-29T04:06:48;10.10;99.90
47022;DHT22;32779;52.264;6.154;2022-12-29T04:09:13;10.10;99.90
47022;DHT22;32779;52.264;6.154;2022-12-29T04:11:39;10.10;99.90
47022;DHT22;32779;52.264;6.154;2022-12-29T04:14:05;10.10;99.90
47022;DHT22;32779;52.264;6.154;2022-12-29T04:16:30;10.10;99.90
47022;DHT22;32779;52.264;6.154;2022-12-29T04:18:56;10.10;99.90
47022;DHT22;32779;52.264;6.154;2022-12-29T04:21:21;10.10;99.90
47022;DHT22;32779;52.264;6.154;2022-12-29T04:23:47;10.00;99.90
47022;DHT22;32779;52.264;6.154;2022-12-29T04:26:12;10.00;99.90
47022;DHT22;32779;52.264;6.154;2022-12-29T04:28:38;10.00;99.90
47022;DHT22;32779;52.264;6.154;2022-12-29T04:31:05;10.00;99.90
47022;DHT22;32779;52.264;6.154;2022-12-29T04:33:31;10.00;99.90
47022;DHT22;32779;52.264;6.154;2022-12-29T04:35:56;10.00;99.90
47022;DHT22;32779;52.264;6.154;2022-12-29T04:38:23;10.00;99.90
47022;DHT22;32779;52.264;6.154;2022-12-29T04:40:49;10.00;99.90
47022;DHT22;32779;52.264;6.154;2022-12-29T04:43:15;10.00;99.90
47022;DHT22;32779;52.264;6.154;2022-12-29T04:45:46;10.00;99.90
47022;DHT22;32779;52.264;6.154;2022-12-29T04:48:12;10.00;99.90
47022;DHT22;32779;52.264;6.154;2022-12-29T04:50:38;10.00;99.90
47022;DHT22;32779;52.264;6.154;2022-12-29T04:53:04;10.00;99.90
47022;DHT22;32779;52.264;6.154;2022-12-29T04:55:29;10.00;99.90
47022;DHT22;32779;52.264;6.154;2022-12-29T04:57:55;10.00;99.90
47022;DHT22;32779;52.264;6.154;2022-12-29T05:00:21;10.10;99.90
47022;DHT22;32779;52.264;6.154;2022-12-29T05:02:47;10.10;99.90
47022;DHT22;32779;52.264;6.154;2022-12-29T05:05:12;10.10;99.90
47022;DHT22;32779;52.264;6.154;2022-12-29T05:07:38;10.20;99.90
47022;DHT22;32779;52.264;6.154;2022-12-29T05:10:05;10.20;99.90
47022;DHT22;32779;52.264;6.154;2022-12-29T05:12:31;10.20;99.90
47022;DHT22;32779;52.264;6.154;2022-12-29T05:14:57;10.20;99.90
47022;DHT22;32779;52.264;6.154;2022-12-29T05:17:23;10.20;99.90
47022;DHT22;32779;52.264;6.154;2022-12-29T05:19:49;10.20;99.90
47022;DHT22;32779;52.264;6.154;2022-12-29T05:22:14;10.20;99.90
47022;DHT22;32779;52.264;6.154;2022-12-29T05:24:40;10.20;99.90
47022;DHT22;32779;52.264;6.154;2022-12-29T05:27:05;10.20;99.90
47022;DHT22;32779;52.264;6.154;2022-12-29T05:29:31;10.20;99.90
47022;DHT22;32779;52.264;6.154;2022-12-29T05:31:57;10.10;99.90
47022;DHT22;32779;52.264;6.154;2022-12-29T05:34:22;10.10;99.90
47022;DHT22;32779;52.264;6.154;2022-12-29T05:36:48;10.10;99.90
47022;DHT22;32779;52.264;6.154;2022-12-29T05:39:13;10.00;99.90
47022;DHT22;32779;52.264;6.154;2022-12-29T05:41:39;10.00;99.90
47022;DHT22;32779;52.264;6.154;2022-12-29T05:44:04;10.00;99.90
47022;DHT22;32779;52.264;6.154;2022-12-29T05:46:30;10.00;99.90
47022;DHT22;32779;52.264;6.154;2022-12-29T05:48:56;10.00;99.90
47022;DHT22;32779;52.264;6.154;2022-12-29T05:51:21;10.00;99.90
47022;DHT22;32779;52.264;6.154;2022-12-29T05:53:47;10.00;99.90
47022;DHT22;32779;52.264;6.154;2022-12-29T05:56:13;10.00;99.90
47022;DHT22;32779;52.264;6.154;2022-12-29T05:58:38;10.00;99.90
47022;DHT22;32779;52.264;6.154;2022-12-29T06:01:04;9.90;99.90
47022;DHT22;32779;52.264;6.154;2022-12-29T06:03:29;9.90;99.90
47022;DHT22;32779;52.264;6.154;2022-12-29T06:05:55;9.90;99.90
47022;DHT22;32779;52.264;6.154;2022-12-29T06:08:20;9.90;99.90
47022;DHT22;32779;52.264;6.154;2022-12-29T06:10:46;9.90;99.90
47022;DHT22;32779;52.264;6.154;2022-12-29T06:13:12;9.90;99.90
47022;DHT22;32779;52.264;6.154;2022-12-29T06:15:37;9.90;99.90
47022;DHT22;32779;52.264;6.154;2022-12-29T06:18:03;9.90;99.90
47022;DHT22;32779;52.264;6.154;2022-12-29T06:20:28;9.90;99.90
47022;DHT22;32779;52.264;6.154;2022-12-29T06:22:54;9.90;99.90
47022;DHT22;32779;52.264;6.154;2022-12-29T06:25:20;9.90;99.90
47022;DHT22;32779;52.264;6.154;2022-12-29T06:27:45;9.90;99.90
47022;DHT22;32779;52.264;6.154;2022-12-29T06:30:12;9.90;99.90
47022;DHT22;32779;52.264;6.154;2022-12-29T06:32:38;9.80;99.90
47022;DHT22;32779;52.264;6.154;2022-12-29T06:35:05;9.80;99.90
47022;DHT22;32779;52.264;6.154;2022-12-29T06:37:33;9.80;99.90
47022;DHT22;32779;52.264;6.154;2022-12-29T06:39:59;9.70;99.90
47022;DHT22;32779;52.264;6.154;2022-12-29T06:42:24;9.70;99.90
47022;DHT22;32779;52.264;6.154;2022-12-29T06:44:50;9.60;99.90
47022;DHT22;32779;52.264;6.154;2022-12-29T06:47:15;9.70;99.90
47022;DHT22;32779;52.264;6.154;2022-12-29T06:49:41;9.70;99.90
47022;DHT22;32779;52.264;6.154;2022-12-29T06:52:07;9.70;99.90
47022;DHT22;32779;52.264;6.154;2022-12-29T06:54:32;9.70;99.90
47022;DHT22;32779;52.264;6.154;2022-12-29T06:56:58;9.70;99.90
47022;DHT22;32779;52.264;6.154;2022-12-29T06:59:24;9.60;99.90
47022;DHT22;32779;52.264;6.154;2022-12-29T07:01:51;9.60;99.90
47022;DHT22;32779;52.264;6.154;2022-12-29T07:04:16;9.60;99.90
47022;DHT22;32779;52.264;6.154;2022-12-29T07:06:42;9.50;99.90
47022;DHT22;32779;52.264;6.154;2022-12-29T07:09:08;9.50;99.90
47022;DHT22;32779;52.264;6.154;2022-12-29T07:11:34;9.40;99.90
47022;DHT22;32779;52.264;6.154;2022-12-29T07:14:00;9.40;99.90
47022;DHT22;32779;52.264;6.154;2022-12-29T07:16:26;9.40;99.90
47022;DHT22;32779;52.264;6.154;2022-12-29T07:18:52;9.30;99.90
47022;DHT22;32779;52.264;6.154;2022-12-29T07:21:23;9.30;99.90
47022;DHT22;32779;52.264;6.154;2022-12-29T07:23:49;9.20;99.90
47022;DHT22;32779;52.264;6.154;2022-12-29T07:26:15;9.20;99.90
47022;DHT22;32779;52.264;6.154;2022-12-29T07:28:43;9.20;99.90
47022;DHT22;32779;52.264;6.154;2022-12-29T07:31:17;9.20;99.90
47022;DHT22;32779;52.264;6.154;2022-12-29T07:33:44;9.20;99.90
47022;DHT22;32779;52.264;6.154;2022-12-29T07:36:11;9.20;99.90
47022;DHT22;32779;52.264;6.154;2022-12-29T07:38:37;9.20;99.90
47022;DHT22;32779;52.264;6.154;2022-12-29T07:41:02;9.20;99.90
47022;DHT22;32779;52.264;6.154;2022-12-29T07:43:28;9.20;99.90
47022;DHT22;32779;52.264;6.154;2022-12-29T07:45:57;9.10;99.90
47022;DHT22;32779;52.264;6.154;2022-12-29T07:48:22;9.10;99.90
47022;DHT22;32779;52.264;6.154;2022-12-29T07:50:48;9.10;99.90
47022;DHT22;32779;52.264;6.154;2022-12-29T07:53:14;9.10;99.90
47022;DHT22;32779;52.264;6.154;2022-12-29T07:55:39;9.00;99.90
47022;DHT22;32779;52.264;6.154;2022-12-29T07:58:05;8.90;99.90
47022;DHT22;32779;52.264;6.154;2022-12-29T08:00:31;8.90;99.90
47022;DHT22;32779;52.264;6.154;2022-12-29T08:02:57;8.80;99.90
47022;DHT22;32779;52.264;6.154;2022-12-29T08:05:22;8.80;99.90
47022;DHT22;32779;52.264;6.154;2022-12-29T08:07:48;8.70;99.90
47022;DHT22;32779;52.264;6.154;2022-12-29T08:10:14;8.70;99.90
47022;DHT22;32779;52.264;6.154;2022-12-29T08:12:40;8.60;99.90
47022;DHT22;32779;52.264;6.154;2022-12-29T08:15:08;8.60;99.90
47022;DHT22;32779;52.264;6.154;2022-12-29T08:17:34;8.60;99.90
47022;DHT22;32779;52.264;6.154;2022-12-29T08:19:59;8.50;99.90
47022;DHT22;32779;52.264;6.154;2022-12-29T08:22:25;8.50;99.90
47022;DHT22;32779;52.264;6.154;2022-12-29T08:24:51;8.50;99.90
47022;DHT22;32779;52.264;6.154;2022-12-29T08:27:17;8.40;99.90
47022;DHT22;32779;52.264;6.154;2022-12-29T08:29:43;8.40;99.90
47022;DHT22;32779;52.264;6.154;2022-12-29T08:32:08;8.40;99.90
47022;DHT22;32779;52.264;6.154;2022-12-29T08:34:34;8.40;99.90
47022;DHT22;32779;52.264;6.154;2022-12-29T08:36:59;8.50;99.90
47022;DHT22;32779;52.264;6.154;2022-12-29T08:39:25;8.50;99.90
47022;DHT22;32779;52.264;6.154;2022-12-29T08:41:51;8.60;99.90
47022;DHT22;32779;52.264;6.154;2022-12-29T08:44:16;8.60;99.90
47022;DHT22;32779;52.264;6.154;2022-12-29T08:46:42;8.60;99.90
47022;DHT22;32779;52.264;6.154;2022-12-29T08:49:07;8.70;99.90
47022;DHT22;32779;52.264;6.154;2022-12-29T08:51:33;8.70;99.90
47022;DHT22;32779;52.264;6.154;2022-12-29T08:53:59;8.80;99.90
47022;DHT22;32779;52.264;6.154;2022-12-29T08:56:24;8.80;99.90
47022;DHT22;32779;52.264;6.154;2022-12-29T08:58:51;8.80;99.90
47022;DHT22;32779;52.264;6.154;2022-12-29T09:01:17;8.90;99.90
47022;DHT22;32779;52.264;6.154;2022-12-29T09:03:42;8.90;99.90
47022;DHT22;32779;52.264;6.154;2022-12-29T09:06:08;8.90;99.90
47022;DHT22;32779;52.264;6.154;2022-12-29T09:08:34;9.00;99.90
47022;DHT22;32779;52.264;6.154;2022-12-29T09:11:11;9.00;99.90
47022;DHT22;32779;52.264;6.154;2022-12-29T09:13:37;9.00;99.90
47022;DHT22;32779;52.264;6.154;2022-12-29T09:16:03;9.10;99.90
47022;DHT22;32779;52.264;6.154;2022-12-29T09:18:30;9.20;99.90
47022;DHT22;32779;52.264;6.154;2022-12-29T09:20:56;9.20;99.90
47022;DHT22;32779;52.264;6.154;2022-12-29T09:23:22;9.30;99.90
47022;DHT22;32779;52.264;6.154;2022-12-29T09:25:47;9.30;99.90
47022;DHT22;32779;52.264;6.154;2022-12-29T09:28:13;9.40;99.90
47022;DHT22;32779;52.264;6.154;2022-12-29T09:30:38;9.40;99.90
47022;DHT22;32779;52.264;6.154;2022-12-29T09:33:04;9.40;99.90
47022;DHT22;32779;52.264;6.154;2022-12-29T09:35:30;9.40;99.90
47022;DHT22;32779;52.264;6.154;2022-12-29T09:37:56;9.40;99.90
47022;DHT22;32779;52.264;6.154;2022-12-29T09:40:30;9.40;99.90
47022;DHT22;32779;52.264;6.154;2022-12-29T09:48:38;9.40;99.90
47022;DHT22;32779;52.264;6.154;2022-12-29T09:51:09;9.50;99.90
47022;DHT22;32779;52.264;6.154;2022-12-29T09:53:39;9.50;99.90
47022;DHT22;32779;52.264;6.154;2022-12-29T09:56:15;9.50;99.90
47022;DHT22;32779;52.264;6.154;2022-12-29T09:58:59;9.50;99.90
47022;DHT22;32779;52.264;6.154;2022-12-29T10:01:47;9.50;99.90
47022;DHT22;32779;52.264;6.154;2022-12-29T10:04:16;9.50;99.90
47022;DHT22;32779;52.264;6.154;2022-12-29T10:06:51;9.50;99.90
47022;DHT22;32779;52.264;6.154;2022-12-29T10:23:14;9.40;99.90
47022;DHT22;32779;52.264;6.154;2022-12-29T10:25:43;9.40;99.90
47022;DHT22;32779;52.264;6.154;2022-12-29T10:28:20;9.30;99.90
47022;DHT22;32779;52.264;6.154;2022-12-29T10:30:47;9.30;99.90
47022;DHT22;32779;52.264;6.154;2022-12-29T10:33:19;9.30;99.90
47022;DHT22;32779;52.264;6.154;2022-12-29T10:35:47;9.30;99.90
47022;DHT22;32779;52.264;6.154;2022-12-29T10:38:30;9.30;99.90
47022;DHT22;32779;52.264;6.154;2022-12-29T10:41:08;9.30;99.90
47022;DHT22;32779;52.264;6.154;2022-12-29T10:43:46;9.40;99.90
47022;DHT22;32779;52.264;6.154;2022-12-29T10:46:16;9.40;99.90
47022;DHT22;32779;52.264;6.154;2022-12-29T10:48:43;9.40;99.90
47022;DHT22;32779;52.264;6.154;2022-12-29T10:51:21;9.40;99.90
47022;DHT22;32779;52.264;6.154;2022-12-29T10:53:57;9.40;99.90
47022;DHT22;32779;52.264;6.154;2022-12-29T10:58:56;9.30;99.90
47022;DHT22;32779;52.264;6.154;2022-12-29T11:01:30;9.30;99.90
47022;DHT22;32779;52.264;6.154;2022-12-29T11:07:01;9.30;99.90
47022;DHT22;32779;52.264;6.154;2022-12-29T11:09:29;9.20;99.90
47022;DHT22;32779;52.264;6.154;2022-12-29T11:11:56;9.30;99.90
47022;DHT22;32779;52.264;6.154;2022-12-29T11:14:28;9.20;99.90
47022;DHT22;32779;52.264;6.154;2022-12-29T11:16:59;9.20;99.90
47022;DHT22;32779;52.264;6.154;2022-12-29T11:19:27;9.20;99.90
47022;DHT22;32779;52.264;6.154;2022-12-29T11:21:54;9.20;99.90
47022;DHT22;32779;52.264;6.154;2022-12-29T11:24:23;9.20;99.90
47022;DHT22;32779;52.264;6.154;2022-12-29T11:26:51;9.20;99.90
47022;DHT22;32779;52.264;6.154;2022-12-29T11:29:29;9.20;99.90
47022;DHT22;32779;52.264;6.154;2022-12-29T11:32:11;9.30;99.90
47022;DHT22;32779;52.264;6.154;2022-12-29T11:34:38;9.30;99.90
47022;DHT22;32779;52.264;6.154;2022-12-29T11:37:14;9.30;99.90
47022;DHT22;32779;52.264;6.154;2022-12-29T11:42:23;9.30;99.90
47022;DHT22;32779;52.264;6.154;2022-12-29T11:44:50;9.30;99.90
47022;DHT22;32779;52.264;6.154;2022-12-29T11:47:26;9.30;99.90
47022;DHT22;32779;52.264;6.154;2022-12-29T11:49:56;9.40;99.90
47022;DHT22;32779;52.264;6.154;2022-12-29T11:52:26;9.30;99.90
47022;DHT22;32779;52.264;6.154;2022-12-29T11:54:53;9.30;99.90
47022;DHT22;32779;52.264;6.154;2022-12-29T11:57:22;9.30;99.90
47022;DHT22;32779;52.264;6.154;2022-12-29T11:59:54;9.40;99.90
47022;DHT22;32779;52.264;6.154;2022-12-29T12:02:35;9.30;99.90
47022;DHT22;32779;52.264;6.154;2022-12-29T12:11:15;9.40;99.90
47022;DHT22;32779;52.264;6.154;2022-12-29T12:13:49;9.40;99.90
47022;DHT22;32779;52.264;6.154;2022-12-29T12:16:20;9.40;99.90
47022;DHT22;32779;52.264;6.154;2022-12-29T12:18:53;9.40;99.90
47022;DHT22;32779;52.264;6.154;2022-12-29T12:21:25;9.40;99.90
47022;DHT22;32779;52.264;6.154;2022-12-29T12:32:20;9.30;99.90
47022;DHT22;32779;52.264;6.154;2022-12-29T12:34:48;9.30;99.90
47022;DHT22;32779;52.264;6.154;2022-12-29T12:37:52;9.20;99.90
47022;DHT22;32779;52.264;6.154;2022-12-29T12:43:18;9.20;99.90
47022;DHT22;32779;52.264;6.154;2022-12-29T12:57:52;9.30;99.90
47022;DHT22;32779;52.264;6.154;2022-12-29T13:00:21;9.30;99.90
47022;DHT22;32779;52.264;6.154;2022-12-29T13:03:13;9.30;99.90
47022;DHT22;32779;52.264;6.154;2022-12-29T13:12:11;9.30;99.90
47022;DHT22;32779;52.264;6.154;2022-12-29T13:17:28;9.30;99.90
47022;DHT22;32779;52.264;6.154;2022-12-29T13:23:58;9.30;99.90
47022;DHT22;32779;52.264;6.154;2022-12-29T13:34:46;9.40;99.90
47022;DHT22;32779;52.264;6.154;2022-12-29T13:37:18;9.50;99.90
47022;DHT22;32779;52.264;6.154;2022-12-29T13:39:55;9.50;99.90
47022;DHT22;32779;52.264;6.154;2022-12-29T13:42:23;9.50;99.90
47022;DHT22;32779;52.264;6.154;2022-12-29T13:45:00;9.50;99.90
47022;DHT22;32779;52.264;6.154;2022-12-29T13:47:36;9.50;99.90
47022;DHT22;32779;52.264;6.154;2022-12-29T13:50:08;9.50;99.90
47022;DHT22;32779;52.264;6.154;2022-12-29T13:55:28;9.50;99.90
47022;DHT22;32779;52.264;6.154;2022-12-29T14:00:45;9.50;99.90
47022;DHT22;32779;52.264;6.154;2022-12-29T14:03:36;9.50;99.90
47022;DHT22;32779;52.264;6.154;2022-12-29T14:08:58;9.50;99.90
47022;DHT22;32779;52.264;6.154;2022-12-29T14:11:34;9.50;99.90
47022;DHT22;32779;52.264;6.154;2022-12-29T14:14:21;9.50;99.90
47022;DHT22;32779;52.264;6.154;2022-12-29T14:16:47;9.50;99.90
47022;DHT22;32779;52.264;6.154;2022-12-29T14:19:24;9.50;99.90
47022;DHT22;32779;52.264;6.154;2022-12-29T14:21:54;9.40;99.90
47022;DHT22;32779;52.264;6.154;2022-12-29T14:29:47;9.30;99.90
47022;DHT22;32779;52.264;6.154;2022-12-29T14:34:55;9.30;99.90
47022;DHT22;32779;52.264;6.154;2022-12-29T14:37:29;9.30;99.90
47022;DHT22;32779;52.264;6.154;2022-12-29T14:40:14;9.30;99.90
47022;DHT22;32779;52.264;6.154;2022-12-29T14:42:43;9.30;99.90
47022;DHT22;32779;52.264;6.154;2022-12-29T14:47:46;9.20;99.90
47022;DHT22;32779;52.264;6.154;2022-12-29T14:50:41;9.20;99.90
47022;DHT22;32779;52.264;6.154;2022-12-29T14:53:44;9.20;99.90
47022;DHT22;32779;52.264;6.154;2022-12-29T14:56:11;9.20;99.90
47022;DHT22;32779;52.264;6.154;2022-12-29T14:59:02;9.20;99.90
47022;DHT22;32779;52.264;6.154;2022-12-29T15:01:40;9.10;99.90
47022;DHT22;32779;52.264;6.154;2022-12-29T15:04:18;9.10;99.90
47022;DHT22;32779;52.264;6.154;2022-12-29T15:06:44;9.10;99.90
47022;DHT22;32779;52.264;6.154;2022-12-29T15:11:59;9.10;99.90
47022;DHT22;32779;52.264;6.154;2022-12-29T15:14:38;9.00;99.90
47022;DHT22;32779;52.264;6.154;2022-12-29T15:17:27;9.00;99.90
47022;DHT22;32779;52.264;6.154;2022-12-29T15:19:55;9.00;99.90
47022;DHT22;32779;52.264;6.154;2022-12-29T15:22:21;8.90;99.90
47022;DHT22;32779;52.264;6.154;2022-12-29T15:24:50;8.90;99.90
47022;DHT22;32779;52.264;6.154;2022-12-29T15:27:21;8.80;99.90
47022;DHT22;32779;52.264;6.154;2022-12-29T15:29:47;8.70;99.90
47022;DHT22;32779;52.264;6.154;2022-12-29T15:34:45;8.60;99.90
47022;DHT22;32779;52.264;6.154;2022-12-29T15:37:18;8.60;99.90
47022;DHT22;32779;52.264;6.154;2022-12-29T15:39:45;8.50;99.90
47022;DHT22;32779;52.264;6.154;2022-12-29T15:45:12;8.40;99.90
47022;DHT22;32779;52.264;6.154;2022-12-29T15:47:40;8.40;99.90
47022;DHT22;32779;52.264;6.154;2022-12-29T15:50:28;8.40;99.90
47022;DHT22;32779;52.264;6.154;2022-12-29T15:52:53;8.40;99.90
47022;DHT22;32779;52.264;6.154;2022-12-29T15:55:30;8.30;99.90
47022;DHT22;32779;52.264;6.154;2022-12-29T15:57:58;8.30;99.90
47022;DHT22;32779;52.264;6.154;2022-12-29T16:00:33;8.40;99.90
47022;DHT22;32779;52.264;6.154;2022-12-29T16:03:01;8.40;99.90
47022;DHT22;32779;52.264;6.154;2022-12-29T16:05:39;8.40;99.90
47022;DHT22;32779;52.264;6.154;2022-12-29T16:08:31;8.40;99.90
47022;DHT22;32779;52.264;6.154;2022-12-29T16:10:59;8.50;99.90
47022;DHT22;32779;52.264;6.154;2022-12-29T16:16:18;8.50;99.90
47022;DHT22;32779;52.264;6.154;2022-12-29T16:18:44;8.50;99.90
47022;DHT22;32779;52.264;6.154;2022-12-29T16:21:29;8.50;99.90
47022;DHT22;32779;52.264;6.154;2022-12-29T16:24:01;8.50;99.90
47022;DHT22;32779;52.264;6.154;2022-12-29T16:26:28;8.50;99.90
47022;DHT22;32779;52.264;6.154;2022-12-29T16:29:01;8.60;99.90
47022;DHT22;32779;52.264;6.154;2022-12-29T16:31:51;8.60;99.90
47022;DHT22;32779;52.264;6.154;2022-12-29T16:34:32;8.60;99.90
47022;DHT22;32779;52.264;6.154;2022-12-29T16:37:00;8.60;99.90
47022;DHT22;32779;52.264;6.154;2022-12-29T16:39:32;8.60;99.90
47022;DHT22;32779;52.264;6.154;2022-12-29T16:41:58;8.60;99.90
47022;DHT22;32779;52.264;6.154;2022-12-29T16:44:29;8.60;99.90
47022;DHT22;32779;52.264;6.154;2022-12-29T16:47:15;8.60;99.90
47022;DHT22;32779;52.264;6.154;2022-12-29T16:49:45;8.70;99.90
47022;DHT22;32779;52.264;6.154;2022-12-29T16:52:25;8.70;99.90
47022;DHT22;32779;52.264;6.154;2022-12-29T16:54:56;8.70;99.90
47022;DHT22;32779;52.264;6.154;2022-12-29T16:57:26;8.70;99.90
47022;DHT22;32779;52.264;6.154;2022-12-29T16:59:55;8.70;99.90
47022;DHT22;32779;52.264;6.154;2022-12-29T17:02:24;8.70;99.90
47022;DHT22;32779;52.264;6.154;2022-12-29T17:04:50;8.70;99.90
47022;DHT22;32779;52.264;6.154;2022-12-29T17:07:23;8.70;99.90
47022;DHT22;32779;52.264;6.154;2022-12-29T17:09:49;8.70;99.90
47022;DHT22;32779;52.264;6.154;2022-12-29T17:12:27;8.70;99.90
47022;DHT22;32779;52.264;6.154;2022-12-29T17:15:04;8.70;99.90
47022;DHT22;32779;52.264;6.154;2022-12-29T17:17:39;8.70;99.90
47022;DHT22;32779;52.264;6.154;2022-12-29T17:20:24;8.70;99.90
47022;DHT22;32779;52.264;6.154;2022-12-29T17:22:51;8.70;99.90
47022;DHT22;32779;52.264;6.154;2022-12-29T17:25:26;8.70;99.90
47022;DHT22;32779;52.264;6.154;2022-12-29T17:27:58;8.70;99.90
47022;DHT22;32779;52.264;6.154;2022-12-29T17:30:25;8.70;99.90
47022;DHT22;32779;52.264;6.154;2022-12-29T17:33:03;8.70;99.90
47022;DHT22;32779;52.264;6.154;2022-12-29T17:35:29;8.70;99.90
47022;DHT22;32779;52.264;6.154;2022-12-29T17:37:56;8.60;99.90
47022;DHT22;32779;52.264;6.154;2022-12-29T17:40:26;8.70;99.90
47022;DHT22;32779;52.264;6.154;2022-12-29T17:42:54;8.60;99.90
47022;DHT22;32779;52.264;6.154;2022-12-29T17:45:28;8.60;99.90
47022;DHT22;32779;52.264;6.154;2022-12-29T17:47:55;8.60;99.90
47022;DHT22;32779;52.264;6.154;2022-12-29T17:50:24;8.50;99.90
47022;DHT22;32779;52.264;6.154;2022-12-29T17:52:55;8.50;99.90
47022;DHT22;32779;52.264;6.154;2022-12-29T17:55:23;8.50;99.90
47022;DHT22;32779;52.264;6.154;2022-12-29T17:57:49;8.40;99.90
47022;DHT22;32779;52.264;6.154;2022-12-29T18:00:20;8.40;99.90
47022;DHT22;32779;52.264;6.154;2022-12-29T18:02:47;8.30;99.90
47022;DHT22;32779;52.264;6.154;2022-12-29T18:05:19;8.30;99.90
47022;DHT22;32779;52.264;6.154;2022-12-29T18:07:45;8.30;99.90
47022;DHT22;32779;52.264;6.154;2022-12-29T18:10:13;8.30;99.90
47022;DHT22;32779;52.264;6.154;2022-12-29T18:12:41;8.30;99.90
47022;DHT22;32779;52.264;6.154;2022-12-29T18:15:31;8.20;99.90
47022;DHT22;32779;52.264;6.154;2022-12-29T18:18:00;8.20;99.90